createdAt,value
2022-09-28T00:01:18.454Z,1.60
2022-09-28T00:03:45.975Z,1.60
2022-09-28T00:06:14.378Z,1.60
2022-09-28T00:08:42.242Z,1.52
2022-09-28T00:11:13.654Z,1.20
2022-09-28T00:13:40.528Z,1.23
2022-09-28T00:16:10.535Z,1.13
2022-09-28T00:18:37.341Z,1.10
2022-09-28T00:21:09.304Z,1.25
2022-09-28T00:23:56.398Z,1.42
2022-09-28T00:26:23.537Z,1.42
2022-09-28T00:28:59.059Z,1.50
2022-09-28T00:31:32.546Z,1.60
2022-09-28T00:34:00.403Z,1.40
2022-09-28T00:36:28.588Z,1.52
2022-09-28T00:38:58.781Z,1.60
2022-09-28T00:41:26.847Z,1.70
2022-09-28T00:43:54.606Z,1.65
2022-09-28T00:46:34.161Z,1.75
2022-09-28T00:49:04.102Z,1.60
2022-09-28T00:51:31.860Z,1.50
2022-09-28T00:53:59.517Z,1.73
2022-09-28T00:56:28.384Z,1.60
2022-09-28T00:58:54.969Z,1.42
2022-09-28T01:01:21.697Z,1.38
2022-09-28T01:03:48.719Z,1.23
2022-09-28T01:06:18.678Z,1.30
2022-09-28T01:08:45.825Z,1.10
2022-09-28T01:11:13.244Z,1.20
2022-09-28T01:13:40.269Z,1.50
2022-09-28T01:16:28.988Z,1.25
2022-09-28T01:19:08.700Z,1.13
2022-09-28T01:21:50.304Z,1.30
2022-09-28T01:24:40.300Z,1.38
2022-09-28T01:27:28.500Z,1.17
2022-09-28T01:32:35.078Z,1.10
2022-09-28T01:35:08.810Z,1.27
2022-09-28T01:37:43.812Z,1.00
2022-09-28T01:40:12.051Z,1.10
2022-09-28T01:42:39.894Z,1.05
2022-09-28T01:45:12.321Z,1.17
2022-09-28T01:47:40.534Z,1.00
2022-09-28T01:50:14.692Z,1.00
2022-09-28T01:52:50.044Z,1.00
2022-09-28T01:55:29.014Z,0.90
2022-09-28T01:58:00.690Z,0.93
2022-09-28T02:00:27.969Z,0.77
2022-09-28T02:02:59.415Z,0.90
2022-09-28T02:05:39.343Z,1.23
2022-09-28T02:08:09.859Z,0.70
2022-09-28T02:11:15.335Z,0.90
2022-09-28T02:13:51.364Z,1.00
2022-09-28T02:16:40.752Z,1.02
2022-09-28T02:19:11.214Z,0.93
2022-09-28T02:21:38.139Z,0.70
2022-09-28T02:24:11.523Z,0.90
2022-09-28T02:26:41.794Z,0.85
2022-09-28T02:29:08.339Z,0.80
2022-09-28T02:31:35.571Z,0.73
2022-09-28T02:34:02.458Z,0.73
2022-09-28T02:36:29.853Z,0.80
2022-09-28T02:38:58.214Z,0.88
2022-09-28T02:41:33.766Z,0.77
2022-09-28T02:44:26.514Z,0.98
2022-09-28T02:47:00.251Z,0.60
2022-09-28T02:49:46.915Z,0.70
2022-09-28T02:52:38.611Z,0.68
2022-09-28T02:55:10.917Z,0.75
2022-09-28T02:57:48.352Z,0.90
2022-09-28T03:00:18.776Z,0.73
2022-09-28T03:03:08.057Z,0.77
2022-09-28T03:05:47.024Z,0.90
2022-09-28T03:08:27.800Z,0.80
2022-09-28T03:10:59.168Z,0.90
2022-09-28T03:13:26.813Z,0.88
2022-09-28T03:16:27.383Z,0.73
2022-09-28T03:18:54.224Z,0.80
2022-09-28T03:21:20.735Z,1.02
2022-09-28T03:23:47.776Z,0.70
2022-09-28T03:26:16.715Z,1.10
2022-09-28T03:28:44.211Z,0.98
2022-09-28T03:31:16.095Z,1.10
2022-09-28T03:33:42.524Z,1.00
2022-09-28T03:36:09.627Z,1.27
2022-09-28T03:38:36.926Z,1.25
2022-09-28T03:41:03.452Z,1.30
2022-09-28T03:43:34.599Z,1.40
2022-09-28T03:46:02.602Z,1.10
2022-09-28T03:48:34.513Z,1.10
2022-09-28T03:51:03.297Z,1.20
2022-09-28T03:53:30.060Z,1.40
2022-09-28T03:56:05.425Z,1.63
2022-09-28T03:58:32.833Z,1.38
2022-09-28T04:01:04.357Z,1.27
2022-09-28T04:03:31.249Z,1.35
2022-09-28T04:05:58.081Z,1.30
2022-09-28T04:08:24.648Z,1.40
2022-09-28T04:10:51.072Z,1.17
2022-09-28T04:13:18.511Z,1.23
2022-09-28T04:15:52.773Z,1.40
2022-09-28T04:18:20.467Z,1.40
2022-09-28T04:21:15.237Z,1.73
2022-09-28T04:23:48.760Z,1.17
2022-09-28T04:26:26.256Z,1.50
2022-09-28T04:29:11.447Z,1.75
2022-09-28T04:31:42.335Z,1.60
2022-09-28T04:34:09.019Z,1.70
2022-09-28T04:36:37.059Z,1.98
2022-09-28T04:39:03.857Z,1.60
2022-09-28T04:41:31.536Z,1.67
2022-09-28T04:43:57.944Z,1.67
2022-09-28T04:46:25.988Z,1.75
2022-09-28T04:49:04.232Z,1.83
2022-09-28T06:49:17.300Z,2.90
2022-09-28T06:52:04.603Z,2.70
2022-09-28T06:54:54.188Z,3.00
2022-09-28T06:57:22.914Z,2.50
2022-09-28T06:59:49.436Z,2.53
2022-09-28T07:02:15.980Z,2.65
2022-09-28T07:04:59.452Z,2.17
2022-09-28T07:07:40.472Z,2.30
2022-09-28T07:10:45.176Z,2.28
2022-09-28T07:13:48.073Z,2.22
2022-09-28T07:16:12.431Z,2.50
2022-09-28T07:18:38.907Z,2.13
2022-09-28T07:21:07.788Z,2.40
2022-09-28T07:23:46.174Z,1.83
2022-09-28T07:26:24.587Z,1.90
2022-09-28T07:28:57.156Z,2.05
2022-09-28T07:31:33.674Z,1.70
2022-09-28T07:34:19.085Z,1.60
2022-09-28T07:36:59.530Z,1.73
2022-09-28T07:39:25.983Z,1.50
2022-09-28T07:41:54.386Z,1.42
2022-09-28T07:44:23.071Z,1.60
2022-09-28T07:46:53.207Z,1.80
2022-09-28T07:49:30.545Z,1.70
2022-09-28T07:52:13.717Z,1.17
2022-09-28T07:55:04.600Z,1.17
2022-09-28T07:58:01.703Z,1.30
2022-09-28T08:01:06.764Z,1.65
2022-09-28T08:03:35.145Z,1.48
2022-09-28T08:06:04.840Z,1.10
2022-09-28T08:08:33.610Z,1.27
2022-09-28T08:11:00.069Z,1.40
2022-09-28T08:14:04.826Z,1.10
2022-09-28T08:16:52.032Z,1.02
2022-09-28T08:19:52.269Z,1.00
2022-09-28T08:22:19.439Z,1.10
2022-09-28T08:24:49.270Z,0.98
2022-09-28T08:27:16.884Z,1.15
2022-09-28T08:29:43.492Z,1.15
2022-09-28T08:32:29.832Z,1.10
2022-09-28T08:35:26.151Z,1.05
2022-09-28T08:38:10.795Z,1.02
2022-09-28T08:41:34.752Z,1.10
2022-09-28T08:44:24.467Z,1.02
2022-09-28T08:47:35.688Z,1.00
2022-09-28T08:50:24.141Z,0.95
2022-09-28T08:53:06.036Z,0.90
2022-09-28T08:55:50.355Z,1.00
2022-09-28T08:58:38.093Z,1.10
2022-09-28T09:01:07.760Z,1.00
2022-09-28T09:03:39.276Z,0.98
2022-09-28T09:06:44.459Z,1.00
2022-09-28T09:09:32.153Z,1.33
2022-09-28T09:12:08.448Z,1.33
2022-09-28T09:14:52.020Z,0.80
2022-09-28T09:17:52.312Z,0.95
2022-09-28T09:20:45.372Z,1.13
2022-09-28T09:23:40.809Z,0.95
2022-09-28T09:26:25.281Z,1.08
2022-09-28T09:29:11.558Z,0.80
2022-09-28T09:32:08.182Z,0.80
2022-09-28T09:35:07.580Z,0.93
2022-09-28T09:37:42.654Z,1.20
2022-09-28T09:41:20.588Z,1.00
2022-09-28T09:44:30.836Z,1.02
2022-09-28T09:47:46.735Z,0.82
2022-09-28T09:50:50.604Z,1.00
2022-09-28T09:53:27.187Z,1.00
2022-09-28T09:55:57.251Z,0.80
2022-09-28T09:58:42.413Z,0.70
2022-09-28T10:01:32.663Z,0.80
2022-09-28T10:04:24.808Z,0.80
2022-09-28T10:06:58.538Z,0.95
2022-09-28T10:09:28.683Z,0.80
2022-09-28T10:12:04.760Z,1.00
2022-09-28T10:14:31.509Z,1.25
2022-09-28T10:17:03.651Z,0.80
2022-09-28T10:19:58.787Z,1.15
2022-09-28T10:22:43.857Z,0.82
2022-09-28T10:25:15.282Z,0.80
2022-09-28T10:27:45.976Z,1.00
2022-09-28T10:30:17.614Z,0.73
2022-09-28T10:32:47.053Z,0.80
2022-09-28T10:35:21.972Z,1.20
2022-09-28T10:38:03.116Z,0.60
2022-09-28T10:41:01.059Z,0.77
2022-09-28T10:44:08.770Z,0.60
2022-09-28T10:46:42.100Z,0.60
2022-09-28T10:49:17.640Z,0.80
2022-09-28T10:51:58.732Z,0.95
2022-09-28T10:54:34.064Z,0.70
2022-09-28T10:57:00.756Z,0.60
2022-09-28T10:59:41.497Z,0.70
2022-09-28T11:02:35.720Z,0.60
2022-09-28T11:05:21.975Z,0.70
2022-09-28T11:07:49.732Z,0.70
2022-09-28T11:10:26.236Z,0.90
2022-09-28T11:12:57.202Z,0.95
2022-09-28T11:17:53.530Z,0.88
2022-09-28T11:20:27.473Z,0.73
2022-09-28T11:22:56.452Z,0.95
2022-09-28T11:25:29.005Z,0.80
2022-09-28T11:28:01.456Z,0.80
2022-09-28T11:30:32.696Z,0.70
2022-09-28T11:33:29.608Z,0.90
2022-09-28T11:36:48.189Z,0.80
2022-09-28T11:39:39.427Z,0.75
2022-09-28T11:42:16.579Z,0.90
2022-09-28T11:44:46.347Z,0.65
2022-09-28T11:47:44.337Z,0.70
2022-09-28T11:50:35.683Z,0.68
2022-09-28T11:53:18.574Z,0.60
2022-09-28T11:55:59.848Z,0.60
2022-09-28T11:58:32.856Z,0.70
2022-09-28T12:01:18.887Z,0.60
2022-09-28T12:04:09.569Z,0.60
2022-09-28T12:06:45.193Z,0.60
2022-09-28T12:09:25.460Z,0.50
2022-09-28T12:12:03.473Z,0.60
2022-09-28T12:14:45.558Z,0.55
2022-09-28T12:17:25.726Z,0.57
2022-09-28T12:19:59.513Z,0.77
2022-09-28T12:22:32.790Z,0.80
2022-09-28T12:24:59.293Z,0.60
2022-09-28T12:27:42.877Z,0.50
2022-09-28T12:30:19.227Z,0.80
2022-09-28T12:32:53.340Z,0.80
2022-09-28T12:35:31.522Z,0.82
2022-09-28T12:38:10.066Z,0.65
2022-09-28T12:40:47.458Z,0.75
2022-09-28T12:43:31.027Z,0.80
2022-09-28T12:46:12.083Z,0.90
2022-09-28T12:49:15.880Z,0.70
2022-09-28T12:51:49.598Z,1.02
2022-09-28T12:54:34.301Z,0.67
2022-09-28T12:57:34.431Z,0.93
2022-09-28T13:00:10.660Z,0.82
2022-09-28T13:02:50.742Z,0.80
2022-09-28T13:05:17.044Z,0.63
2022-09-28T13:07:55.672Z,0.80
2022-09-28T13:10:33.758Z,0.90
2022-09-28T13:13:15.504Z,0.88
2022-09-28T13:15:50.934Z,0.93
2022-09-28T13:18:27.108Z,0.80
2022-09-28T13:21:17.214Z,0.90
2022-09-28T13:23:48.531Z,0.63
2022-09-28T13:26:36.328Z,0.90
2022-09-28T13:29:14.502Z,1.10
2022-09-28T13:31:47.419Z,1.20
2022-09-28T13:34:20.490Z,0.50
2022-09-28T13:37:21.739Z,0.85
2022-09-28T13:39:53.042Z,0.80
2022-09-28T13:42:34.971Z,0.77
2022-09-28T13:45:10.377Z,0.90
2022-09-28T13:48:01.014Z,0.82
2022-09-28T13:51:01.356Z,0.70
2022-09-28T13:53:51.266Z,0.63
2022-09-28T13:56:31.500Z,0.77
2022-09-28T13:59:10.910Z,0.70
2022-09-28T14:02:06.898Z,0.75
2022-09-28T14:04:57.726Z,0.70
2022-09-28T14:07:25.105Z,0.70
2022-09-28T14:10:16.948Z,0.60
2022-09-28T14:12:48.382Z,0.75
2022-09-28T14:15:35.000Z,0.50
2022-09-28T14:18:16.548Z,0.50
2022-09-28T14:20:50.707Z,0.68
2022-09-28T14:23:40.087Z,0.63
2022-09-28T14:26:29.852Z,0.80
2022-09-28T14:29:17.649Z,0.98
2022-09-28T14:31:45.196Z,0.90
2022-09-28T14:34:44.988Z,0.65
2022-09-28T14:37:39.351Z,0.75
2022-09-28T14:40:39.991Z,0.60
2022-09-28T14:43:24.322Z,0.68
2022-09-28T14:45:54.387Z,0.80
2022-09-28T14:48:22.405Z,0.90
2022-09-28T14:50:49.884Z,0.70
2022-09-28T14:53:21.872Z,0.70
2022-09-28T14:55:51.804Z,0.60
2022-09-28T14:58:22.327Z,0.90
2022-09-28T15:00:51.492Z,1.10
2022-09-28T15:03:18.197Z,1.00
2022-09-28T15:05:49.564Z,1.38
2022-09-28T15:08:20.170Z,0.65
2022-09-28T15:10:48.409Z,0.70
2022-09-28T15:13:20.768Z,0.70
2022-09-28T15:15:50.424Z,0.63
2022-09-28T15:18:44.788Z,0.60
2022-09-28T15:21:12.411Z,0.60
2022-09-28T15:23:41.284Z,0.70
2022-09-28T15:26:38.708Z,0.57
2022-09-28T15:29:16.787Z,0.60
2022-09-28T15:31:43.270Z,0.90
2022-09-28T15:34:50.837Z,0.68
2022-09-28T15:37:40.656Z,0.68
2022-09-28T15:40:13.919Z,0.60
2022-09-28T15:42:40.366Z,0.60
2022-09-28T15:45:26.565Z,0.70
2022-09-28T15:47:58.245Z,0.75
2022-09-28T15:50:28.116Z,0.57
2022-09-28T15:53:02.975Z,0.57
2022-09-28T15:55:34.913Z,0.70
2022-09-28T15:58:17.666Z,0.90
2022-09-28T16:00:46.331Z,0.70
2022-09-28T16:03:15.764Z,0.63
2022-09-28T16:05:46.688Z,0.70
2022-09-28T16:08:21.155Z,0.70
2022-09-28T16:11:15.159Z,0.75
2022-09-28T16:14:02.440Z,0.70
2022-09-28T16:16:58.151Z,0.73
2022-09-28T16:19:37.746Z,0.80
2022-09-28T16:22:06.303Z,0.80
2022-09-28T16:24:37.400Z,0.80
2022-09-28T16:27:07.013Z,1.15
2022-09-28T16:29:41.304Z,0.80
2022-09-28T16:32:25.816Z,0.70
2022-09-28T16:35:07.228Z,0.80
2022-09-28T16:37:33.771Z,0.82
2022-09-28T16:40:00.269Z,0.90
2022-09-28T16:42:27.328Z,1.20
2022-09-28T16:44:56.341Z,0.80
2022-09-28T16:47:23.328Z,0.90
2022-09-28T16:49:49.763Z,0.98
2022-09-28T16:52:38.756Z,0.80
2022-09-28T16:58:04.744Z,0.93
2022-09-28T17:00:32.362Z,1.20
2022-09-28T17:02:59.091Z,1.23
2022-09-28T17:05:25.541Z,1.20
2022-09-28T17:08:03.461Z,1.33
2022-09-28T17:10:56.108Z,1.08
2022-09-28T17:13:35.906Z,0.90
2022-09-28T17:16:10.254Z,1.10
2022-09-28T17:18:38.972Z,0.90
2022-09-28T17:21:15.555Z,0.90
2022-09-28T17:23:43.459Z,1.10
2022-09-28T17:26:31.374Z,0.90
2022-09-28T17:28:59.245Z,1.20
2022-09-28T17:31:26.131Z,0.93
2022-09-28T17:33:52.649Z,0.90
2022-09-28T17:36:19.165Z,0.90
2022-09-28T17:38:46.714Z,1.17
2022-09-28T17:41:20.009Z,0.73
2022-09-28T17:43:46.821Z,0.90
2022-09-28T17:46:31.350Z,0.80
2022-09-28T17:48:59.759Z,0.80
2022-09-28T17:51:30.854Z,1.00
2022-09-28T17:53:57.937Z,1.35
2022-09-28T17:56:29.701Z,1.02
2022-09-28T17:59:01.016Z,0.85
2022-09-28T18:01:33.604Z,0.77
2022-09-28T18:04:01.667Z,0.80
2022-09-28T18:06:28.153Z,0.90
2022-09-28T18:08:54.738Z,0.82
2022-09-28T18:11:21.383Z,0.95
2022-09-28T18:13:47.778Z,1.10
2022-09-28T18:16:14.636Z,0.90
2022-09-28T18:18:41.187Z,0.98
2022-09-28T18:21:07.698Z,1.00
2022-09-28T18:23:38.252Z,0.82
2022-09-28T18:26:15.134Z,1.38
2022-09-28T18:28:41.624Z,0.98
2022-09-28T18:31:13.488Z,1.02
2022-09-28T18:33:40.628Z,0.90
2022-09-28T18:36:07.905Z,0.80
2022-09-28T18:38:38.032Z,0.60
2022-09-28T18:41:15.383Z,0.73
2022-09-28T18:43:51.280Z,0.80
2022-09-28T18:46:18.226Z,0.82
2022-09-28T18:48:45.092Z,0.82
2022-09-28T18:51:12.464Z,0.70
2022-09-28T18:53:39.911Z,1.10
2022-09-28T18:56:11.203Z,1.08
2022-09-28T18:58:38.848Z,0.98
2022-09-28T19:01:29.396Z,1.17
2022-09-28T19:04:01.740Z,0.85
2022-09-28T19:06:28.732Z,1.10
2022-09-28T19:08:56.121Z,1.05
2022-09-28T19:11:23.609Z,1.00
2022-09-28T19:13:50.296Z,1.00
2022-09-28T19:16:20.527Z,1.20
2022-09-28T19:18:47.594Z,1.02
2022-09-28T19:21:15.062Z,1.10
2022-09-28T19:23:48.087Z,1.40
2022-09-28T19:26:21.166Z,1.30
2022-09-28T19:28:50.988Z,0.82
2022-09-28T19:31:17.675Z,0.95
2022-09-28T19:33:46.556Z,1.20
2022-09-28T19:36:16.515Z,1.40
2022-09-28T19:38:42.937Z,1.00
2022-09-28T19:41:39.019Z,1.25
2022-09-28T19:44:06.404Z,1.00
2022-09-28T19:46:34.195Z,1.13
2022-09-28T19:49:06.050Z,1.27
2022-09-28T19:51:32.903Z,1.30
2022-09-28T19:54:01.540Z,1.02
2022-09-28T19:56:31.591Z,1.23
2022-09-28T19:58:58.973Z,1.08
2022-09-28T20:01:25.677Z,1.60
2022-09-28T20:03:54.248Z,1.00
2022-09-28T20:06:20.641Z,1.15
2022-09-28T20:08:47.244Z,1.00
2022-09-28T20:11:13.632Z,1.30
2022-09-28T20:13:40.020Z,1.10
2022-09-28T20:16:08.385Z,2.03
2022-09-28T20:18:36.580Z,1.50
2022-09-28T20:21:07.900Z,1.17
2022-09-28T20:23:36.068Z,1.00
2022-09-28T20:26:04.541Z,1.50
2022-09-28T20:28:31.555Z,1.30
2022-09-28T20:31:05.117Z,1.10
2022-09-28T20:33:32.977Z,1.38
2022-09-28T20:36:10.423Z,1.40
2022-09-28T20:38:40.372Z,1.30
2022-09-28T20:41:08.395Z,1.23
2022-09-28T20:43:35.129Z,1.20
2022-09-28T20:46:02.534Z,1.20
2022-09-28T20:48:29.502Z,1.30
2022-09-28T20:51:03.480Z,1.00
2022-09-28T20:53:33.169Z,1.17
2022-09-28T20:56:01.071Z,1.30
2022-09-28T20:58:27.853Z,1.58
2022-09-28T21:01:17.227Z,1.55
2022-09-28T21:03:49.212Z,1.38
2022-09-28T21:06:17.296Z,1.55
2022-09-28T21:08:44.426Z,1.67
2022-09-28T21:11:12.368Z,1.70
2022-09-28T21:13:41.423Z,1.90
2022-09-28T21:16:08.425Z,1.33
2022-09-28T21:18:38.808Z,1.80
2022-09-28T21:21:07.279Z,1.65
2022-09-28T21:23:34.340Z,1.67
2022-09-28T21:26:05.793Z,1.60
2022-09-28T21:28:32.904Z,1.70
2022-09-28T21:30:59.675Z,2.10
2022-09-28T21:33:26.148Z,1.90
2022-09-28T21:35:52.586Z,1.80
2022-09-28T21:38:19.052Z,1.60
2022-09-28T21:40:45.516Z,1.70
2022-09-28T21:43:11.999Z,2.22
2022-09-28T21:45:39.460Z,2.05
2022-09-28T21:48:05.862Z,2.08
2022-09-28T21:50:32.509Z,1.85
2022-09-28T21:52:59.337Z,2.30
2022-09-28T21:55:25.723Z,2.35
2022-09-28T21:57:52.150Z,2.10
2022-09-28T22:00:23.040Z,2.25
2022-09-28T22:02:49.980Z,2.13
2022-09-28T22:05:16.827Z,2.17
2022-09-28T22:07:43.336Z,2.17
2022-09-28T22:10:13.952Z,2.33
2022-09-28T22:12:40.571Z,2.40
2022-09-28T22:15:07.576Z,2.42
2022-09-28T22:17:34.063Z,2.20
2022-09-28T22:20:00.625Z,2.97
2022-09-28T22:22:29.204Z,2.70
2022-09-28T22:24:56.093Z,2.47
2022-09-28T22:27:22.529Z,2.60
2022-09-28T22:29:49.089Z,2.00
2022-09-28T22:32:15.515Z,1.90
2022-09-28T22:34:41.896Z,2.20
2022-09-28T22:37:08.307Z,2.40
2022-09-28T22:39:37.705Z,2.20
2022-09-28T22:42:04.561Z,2.20
2022-09-28T22:44:31.007Z,2.30
2022-09-28T22:46:57.960Z,2.10
2022-09-28T22:49:24.419Z,2.20
2022-09-28T22:51:50.808Z,2.55
2022-09-28T22:54:17.390Z,2.33
2022-09-28T22:56:44.056Z,2.53
2022-09-28T22:59:11.523Z,2.58
2022-09-28T23:01:38.422Z,2.63
2022-09-28T23:04:05.101Z,2.65
2022-09-28T23:06:32.958Z,2.17
2022-09-28T23:09:00.112Z,2.42
2022-09-28T23:11:27.439Z,2.33
2022-09-28T23:13:56.002Z,2.70
2022-09-28T23:16:24.696Z,2.90
2022-09-28T23:18:52.338Z,2.95
2022-09-28T23:21:20.561Z,2.83
2022-09-28T23:23:52.259Z,2.90
2022-09-28T23:26:26.919Z,2.78
2022-09-28T23:28:54.186Z,2.55
2022-09-28T23:31:23.300Z,2.70
2022-09-28T23:33:50.264Z,2.20
2022-09-28T23:36:17.408Z,2.58
2022-09-28T23:38:44.060Z,2.50
2022-09-28T23:41:10.724Z,2.70
2022-09-28T23:43:37.284Z,2.40
2022-09-28T23:46:04.898Z,2.55
2022-09-28T23:48:31.456Z,2.80
2022-09-28T23:50:57.982Z,2.50
2022-09-28T23:53:24.661Z,2.90
2022-09-28T23:55:51.120Z,3.42
2022-09-28T23:58:17.537Z,3.15
